createdAt,value
2023-05-25T00:00:07.322Z,4.90
2023-05-25T00:02:10.372Z,5.30
2023-05-25T00:04:16.833Z,5.00
2023-05-25T00:06:22.192Z,4.90
2023-05-25T00:08:26.369Z,4.63
2023-05-25T00:10:29.315Z,4.63
2023-05-25T00:12:32.200Z,5.03
2023-05-25T00:14:36.538Z,4.80
2023-05-25T00:16:42.402Z,5.00
2023-05-25T00:18:45.466Z,4.50
2023-05-25T00:20:48.425Z,4.73
2023-05-25T00:22:52.235Z,4.87
2023-05-25T00:24:55.165Z,5.10
2023-05-25T00:27:04.279Z,4.80
2023-05-25T00:29:07.375Z,5.33
2023-05-25T00:31:11.898Z,4.73
2023-05-25T00:33:15.244Z,5.17
2023-05-25T00:35:18.313Z,4.90
2023-05-25T00:37:21.697Z,4.90
2023-05-25T00:39:24.961Z,5.40
2023-05-25T00:41:29.286Z,4.93
2023-05-25T00:43:35.091Z,4.70
2023-05-25T00:45:38.187Z,4.80
2023-05-25T00:47:42.673Z,4.40
2023-05-25T00:49:45.835Z,5.17
2023-05-25T00:51:51.615Z,5.43
2023-05-25T00:53:54.602Z,4.97
2023-05-25T00:56:11.696Z,5.67
2023-05-25T00:58:19.016Z,4.80
2023-05-25T01:00:23.711Z,4.83
2023-05-25T01:02:32.036Z,5.10
2023-05-25T01:04:45.382Z,4.93
2023-05-25T01:06:53.440Z,5.23
2023-05-25T01:09:04.325Z,5.00
2023-05-25T01:11:09.346Z,5.53
2023-05-25T01:13:18.306Z,4.20
2023-05-25T01:15:21.888Z,5.07
2023-05-25T01:17:25.428Z,5.13
2023-05-25T01:19:29.622Z,5.10
2023-05-25T01:21:43.632Z,4.37
2023-05-25T01:23:53.806Z,4.93
2023-05-25T01:26:03.643Z,5.27
2023-05-25T01:28:10.877Z,5.63
2023-05-25T01:30:15.713Z,4.73
2023-05-25T01:32:20.752Z,4.83
2023-05-25T01:34:24.404Z,5.60
2023-05-25T01:36:29.868Z,4.87
2023-05-25T01:38:37.998Z,4.90
2023-05-25T01:40:44.038Z,5.03
2023-05-25T01:42:46.983Z,5.20
2023-05-25T01:44:50.666Z,5.10
2023-05-25T01:46:59.853Z,4.83
2023-05-25T01:49:14.487Z,4.80
2023-05-25T01:51:22.325Z,5.40
2023-05-25T01:53:30.410Z,5.23
2023-05-25T01:55:40.238Z,4.90
2023-05-25T01:57:46.655Z,5.63
2023-05-25T01:59:55.757Z,5.03
2023-05-25T02:02:00.244Z,5.00
2023-05-25T02:04:05.371Z,5.43
2023-05-25T02:06:09.270Z,6.10
2023-05-25T02:08:14.250Z,5.67
2023-05-25T02:10:19.220Z,5.20
2023-05-25T02:12:25.925Z,5.50
2023-05-25T02:14:28.988Z,5.50
2023-05-25T02:16:31.982Z,5.53
2023-05-25T02:18:37.824Z,5.33
2023-05-25T02:20:43.755Z,5.07
2023-05-25T02:22:48.204Z,6.10
2023-05-25T02:24:51.303Z,5.47
2023-05-25T02:26:56.214Z,5.33
2023-05-25T02:29:01.925Z,5.20
2023-05-25T02:31:04.881Z,5.37
2023-05-25T02:33:08.921Z,5.20
2023-05-25T02:35:11.883Z,5.13
2023-05-25T02:37:15.299Z,5.60
2023-05-25T02:39:18.399Z,6.13
2023-05-25T02:41:21.709Z,5.43
2023-05-25T02:43:24.663Z,5.33
2023-05-25T02:45:28.953Z,5.27
2023-05-25T02:47:31.964Z,5.47
2023-05-25T02:49:37.768Z,5.70
2023-05-25T02:51:43.146Z,5.33
2023-05-25T02:53:46.131Z,5.70
2023-05-25T02:55:49.328Z,5.43
2023-05-25T02:57:55.323Z,5.70
2023-05-25T03:00:19.404Z,5.67
2023-05-25T03:02:25.644Z,5.80
2023-05-25T03:04:31.125Z,6.00
2023-05-25T03:06:37.967Z,5.50
2023-05-25T03:08:47.456Z,5.40
2023-05-25T03:10:53.235Z,5.27
2023-05-25T03:12:58.975Z,5.80
2023-05-25T03:15:01.951Z,5.27
2023-05-25T03:17:05.266Z,5.47
2023-05-25T03:19:10.892Z,5.80
2023-05-25T03:21:13.832Z,5.37
2023-05-25T03:23:19.993Z,5.03
2023-05-25T03:25:26.105Z,5.13
2023-05-25T03:27:30.453Z,5.43
2023-05-25T03:29:33.871Z,5.53
2023-05-25T03:31:36.973Z,5.47
2023-05-25T03:33:43.502Z,4.67
2023-05-25T03:35:48.717Z,5.63
2023-05-25T03:37:52.005Z,5.63
2023-05-25T03:39:57.286Z,5.43
2023-05-25T03:42:02.801Z,5.97
2023-05-25T03:44:06.337Z,5.17
2023-05-25T03:46:11.518Z,5.30
2023-05-25T03:48:14.555Z,5.20
2023-05-25T03:50:18.467Z,5.40
2023-05-25T03:52:23.224Z,5.50
2023-05-25T03:54:28.158Z,5.27
2023-05-25T03:56:33.429Z,5.30
2023-05-25T03:58:36.370Z,5.37
2023-05-25T04:00:39.298Z,5.73
2023-05-25T04:02:42.408Z,5.80
2023-05-25T04:04:45.632Z,6.20
2023-05-25T04:06:50.100Z,5.63
2023-05-25T04:08:57.759Z,5.53
2023-05-25T04:11:01.068Z,5.53
2023-05-25T04:13:04.591Z,5.73
2023-05-25T04:15:09.538Z,5.30
2023-05-25T04:17:25.087Z,6.27
2023-05-25T04:19:31.550Z,5.57
2023-05-25T04:21:36.179Z,6.33
2023-05-25T04:23:45.087Z,6.07
2023-05-25T04:25:52.183Z,6.10
2023-05-25T04:27:58.416Z,5.63
2023-05-25T04:30:24.015Z,5.87
2023-05-25T04:32:48.899Z,5.23
2023-05-25T04:35:05.570Z,6.20
2023-05-25T04:37:17.158Z,6.30
2023-05-25T04:39:22.145Z,5.80
2023-05-25T04:41:30.862Z,6.10
2023-05-25T04:43:39.140Z,5.90
2023-05-25T04:45:45.966Z,5.70
2023-05-25T04:47:49.894Z,5.83
2023-05-25T04:49:54.124Z,5.93
2023-05-25T04:52:00.000Z,6.23
2023-05-25T04:54:11.576Z,6.10
2023-05-25T04:56:15.237Z,6.70
2023-05-25T04:58:19.678Z,5.80
2023-05-25T05:00:23.076Z,6.20
2023-05-25T05:02:32.274Z,6.20
2023-05-25T05:04:38.367Z,5.27
2023-05-25T05:06:44.293Z,5.77
2023-05-25T05:08:53.489Z,6.30
2023-05-25T05:10:56.816Z,6.00
2023-05-25T05:13:00.740Z,6.07
2023-05-25T05:15:08.113Z,5.50
2023-05-25T05:17:11.961Z,6.03
2023-05-25T05:19:15.205Z,5.60
2023-05-25T05:21:19.639Z,6.03
2023-05-25T05:23:25.839Z,5.70
2023-05-25T05:25:28.805Z,6.07
2023-05-25T05:27:31.847Z,5.67
2023-05-25T05:29:41.112Z,5.80
2023-05-25T05:31:45.544Z,5.33
2023-05-25T05:33:49.123Z,6.23
2023-05-25T05:35:53.343Z,5.87
2023-05-25T05:37:59.274Z,5.90
2023-05-25T05:40:05.307Z,5.47
2023-05-25T05:42:09.531Z,6.20
2023-05-25T05:44:18.500Z,6.17
2023-05-25T05:46:21.537Z,6.50
2023-05-25T05:48:26.949Z,6.20
2023-05-25T05:50:30.346Z,6.20
2023-05-25T05:52:33.257Z,5.77
2023-05-25T05:54:36.414Z,5.80
2023-05-25T05:56:44.525Z,6.27
2023-05-25T05:58:51.784Z,6.10
2023-05-25T06:00:56.368Z,5.83
2023-05-25T06:03:00.496Z,5.40
2023-05-25T06:05:07.272Z,5.33
2023-05-25T06:07:12.448Z,5.63
2023-05-25T06:09:17.861Z,5.30
2023-05-25T06:11:25.933Z,6.00
2023-05-25T06:13:29.062Z,4.90
2023-05-25T06:15:32.437Z,5.20
2023-05-25T06:17:37.070Z,5.53
2023-05-25T06:19:40.819Z,5.03
2023-05-25T06:21:46.574Z,5.57
2023-05-25T06:23:49.725Z,5.37
2023-05-25T06:25:54.314Z,5.30
2023-05-25T06:28:00.557Z,5.43
2023-05-25T06:30:06.179Z,4.63
2023-05-25T06:32:13.345Z,4.90
2023-05-25T06:34:18.042Z,5.20
2023-05-25T06:36:22.163Z,5.80
2023-05-25T06:38:31.247Z,5.13
2023-05-25T06:40:34.236Z,5.50
2023-05-25T06:42:38.769Z,5.00
2023-05-25T06:44:59.667Z,5.47
2023-05-25T06:47:03.933Z,4.90
2023-05-25T06:49:07.584Z,4.77
2023-05-25T06:51:10.853Z,4.37
2023-05-25T06:53:15.900Z,5.27
2023-05-25T06:55:22.719Z,4.47
2023-05-25T06:57:25.992Z,4.60
2023-05-25T06:59:28.899Z,4.77
2023-05-25T07:01:34.003Z,4.80
2023-05-25T07:03:38.536Z,4.67
2023-05-25T07:05:41.687Z,4.77
2023-05-25T07:07:47.732Z,4.13
2023-05-25T07:09:53.788Z,4.90
2023-05-25T07:11:58.624Z,4.70
2023-05-25T07:14:03.841Z,4.43
2023-05-25T07:16:07.164Z,4.60
2023-05-25T07:18:12.564Z,4.43
2023-05-25T07:20:15.629Z,4.27
2023-05-25T07:22:19.232Z,4.37
2023-05-25T07:24:22.114Z,4.40
2023-05-25T07:26:25.698Z,4.37
2023-05-25T07:28:32.242Z,4.33
2023-05-25T07:30:35.713Z,4.43
2023-05-25T07:32:41.205Z,4.60
2023-05-25T07:34:44.226Z,3.70
2023-05-25T07:36:47.177Z,4.20
2023-05-25T07:38:50.136Z,4.63
2023-05-25T07:40:53.394Z,3.97
2023-05-25T07:42:58.989Z,4.40
2023-05-25T07:45:03.553Z,4.00
2023-05-25T07:47:07.191Z,4.83
2023-05-25T07:49:13.210Z,3.90
2023-05-25T07:51:16.178Z,4.40
2023-05-25T07:53:19.276Z,4.17
2023-05-25T07:55:22.257Z,3.87
2023-05-25T07:57:29.612Z,3.50
2023-05-25T07:59:32.564Z,4.00
2023-05-25T08:01:39.430Z,4.30
2023-05-25T08:05:51.979Z,3.90
2023-05-25T08:07:55.018Z,3.63
2023-05-25T08:09:58.030Z,4.00
2023-05-25T08:12:14.981Z,4.37
2023-05-25T08:14:26.186Z,3.87
2023-05-25T08:16:30.320Z,3.90
2023-05-25T08:18:34.617Z,4.07
2023-05-25T08:20:37.880Z,3.93
2023-05-25T08:22:40.870Z,4.03
2023-05-25T08:24:43.826Z,4.10
2023-05-25T08:26:54.811Z,3.63
2023-05-25T08:29:00.801Z,4.70
2023-05-25T08:31:04.245Z,4.00
2023-05-25T08:33:07.917Z,3.87
2023-05-25T08:35:14.318Z,3.60
2023-05-25T08:37:17.751Z,4.60
2023-05-25T08:39:23.417Z,3.50
2023-05-25T08:41:27.513Z,3.73
2023-05-25T08:43:30.631Z,4.10
2023-05-25T08:45:36.265Z,3.63
2023-05-25T08:47:45.320Z,3.97
2023-05-25T08:49:50.852Z,3.70
2023-05-25T08:51:56.510Z,3.23
2023-05-25T08:54:06.761Z,2.93
2023-05-25T08:56:14.995Z,3.70
2023-05-25T08:58:20.812Z,3.47
2023-05-25T09:00:31.654Z,3.40
2023-05-25T09:02:39.212Z,4.10
2023-05-25T09:04:45.262Z,3.47
2023-05-25T09:06:57.127Z,3.47
2023-05-25T09:09:09.241Z,3.17
2023-05-25T09:11:30.692Z,3.10
2023-05-25T09:13:40.953Z,3.63
2023-05-25T09:15:45.223Z,3.40
2023-05-25T09:17:49.680Z,3.90
2023-05-25T09:19:52.865Z,3.53
2023-05-25T09:22:03.231Z,3.50
2023-05-25T09:24:11.997Z,3.37
2023-05-25T09:26:15.480Z,3.80
2023-05-25T09:30:32.638Z,3.50
2023-05-25T09:32:36.170Z,4.23
2023-05-25T09:34:39.801Z,3.53
2023-05-25T09:36:43.337Z,2.93
2023-05-25T09:38:47.332Z,3.50
2023-05-25T09:40:52.853Z,3.40
2023-05-25T09:43:01.491Z,3.57
2023-05-25T09:45:06.362Z,2.90
2023-05-25T09:47:10.114Z,3.70
2023-05-25T09:49:13.208Z,3.60
2023-05-25T09:51:16.236Z,3.50
2023-05-25T09:53:19.557Z,3.33
2023-05-25T09:55:22.963Z,3.03
2023-05-25T09:57:28.981Z,3.10
2023-05-25T09:59:32.309Z,3.30
2023-05-25T10:01:36.200Z,3.33
2023-05-25T10:03:59.465Z,3.17
2023-05-25T10:06:06.967Z,3.30
2023-05-25T10:08:11.466Z,3.17
2023-05-25T10:10:16.526Z,3.60
2023-05-25T10:12:23.264Z,3.70
2023-05-25T10:14:30.006Z,3.70
2023-05-25T10:16:36.561Z,3.70
2023-05-25T10:18:44.906Z,3.33
2023-05-25T10:20:51.735Z,3.43
2023-05-25T10:23:09.526Z,3.40
2023-05-25T10:25:18.863Z,3.20
2023-05-25T10:27:27.638Z,3.83
2023-05-25T10:29:36.739Z,3.50
2023-05-25T10:31:40.111Z,3.37
2023-05-25T10:33:47.509Z,3.90
2023-05-25T10:36:08.504Z,3.17
2023-05-25T10:38:15.857Z,3.20
2023-05-25T10:40:21.782Z,3.23
2023-05-25T10:42:24.889Z,3.00
2023-05-25T10:44:28.017Z,2.83
2023-05-25T10:46:32.433Z,3.17
2023-05-25T10:48:38.912Z,3.20
2023-05-25T10:50:43.122Z,3.13
2023-05-25T10:52:46.148Z,3.33
2023-05-25T10:54:49.670Z,2.90
2023-05-25T10:57:09.856Z,3.43
2023-05-25T10:59:16.289Z,3.00
2023-05-25T11:01:19.256Z,3.20
2023-05-25T11:03:23.557Z,3.50
2023-05-25T11:05:39.955Z,3.30
2023-05-25T11:07:54.639Z,3.17
2023-05-25T11:09:59.744Z,3.50
2023-05-25T11:12:03.757Z,3.00
2023-05-25T11:14:22.162Z,3.37
2023-05-25T11:16:36.130Z,3.07
2023-05-25T11:18:43.917Z,2.90
2023-05-25T11:20:48.768Z,3.10
2023-05-25T11:22:52.956Z,2.93
2023-05-25T11:24:59.296Z,2.80
2023-05-25T11:27:05.878Z,2.70
2023-05-25T11:29:14.189Z,2.90
2023-05-25T11:31:18.426Z,3.00
2023-05-25T11:33:23.800Z,2.83
2023-05-25T11:35:28.775Z,3.30
2023-05-25T11:37:33.516Z,3.00
2023-05-25T11:39:36.812Z,3.20
2023-05-25T11:41:41.168Z,3.00
2023-05-25T11:43:45.632Z,2.80
2023-05-25T11:45:56.992Z,2.90
2023-05-25T11:48:05.038Z,3.23
2023-05-25T11:50:08.932Z,3.00
2023-05-25T11:52:28.115Z,2.60
2023-05-25T11:54:31.613Z,3.13
2023-05-25T11:56:36.043Z,3.00
2023-05-25T11:58:41.922Z,2.97
2023-05-25T12:00:45.362Z,2.70
2023-05-25T12:02:49.300Z,3.40
2023-05-25T12:04:57.128Z,2.93
2023-05-25T12:07:07.208Z,2.90
2023-05-25T12:09:13.791Z,3.00
2023-05-25T12:11:16.843Z,2.77
2023-05-25T12:13:19.891Z,2.53
2023-05-25T12:15:24.610Z,2.53
2023-05-25T12:17:31.416Z,3.20
2023-05-25T12:19:39.180Z,2.80
2023-05-25T12:21:42.599Z,2.80
2023-05-25T12:23:46.069Z,3.50
2023-05-25T12:26:08.148Z,2.80
2023-05-25T12:28:11.465Z,2.60
2023-05-25T12:30:14.632Z,2.83
2023-05-25T12:32:20.451Z,3.03
2023-05-25T12:34:28.831Z,2.80
2023-05-25T12:36:42.762Z,2.47
2023-05-25T12:39:00.805Z,2.47
2023-05-25T12:41:08.780Z,2.77
2023-05-25T12:43:16.857Z,2.87
2023-05-25T12:45:19.956Z,3.10
2023-05-25T12:47:28.584Z,2.67
2023-05-25T12:49:35.772Z,2.93
2023-05-25T12:51:41.300Z,3.17
2023-05-25T12:53:51.304Z,3.30
2023-05-25T12:56:02.561Z,3.60
2023-05-25T12:58:08.087Z,3.03
2023-05-25T13:00:12.828Z,3.40
2023-05-25T13:02:15.995Z,3.00
2023-05-25T13:04:18.972Z,3.30
2023-05-25T13:06:21.940Z,3.00
2023-05-25T13:08:25.018Z,2.90
2023-05-25T13:10:29.737Z,2.60
2023-05-25T13:12:32.671Z,2.70
2023-05-25T13:14:41.290Z,2.93
2023-05-25T13:16:49.276Z,3.00
2023-05-25T13:18:52.730Z,3.10
2023-05-25T13:20:57.098Z,2.63
2023-05-25T13:23:00.622Z,2.73
2023-05-25T13:25:03.953Z,2.37
2023-05-25T13:27:09.853Z,2.63
2023-05-25T13:29:13.147Z,2.67
2023-05-25T13:31:18.222Z,2.57
2023-05-25T13:33:24.155Z,2.93
2023-05-25T13:35:38.090Z,2.50
2023-05-25T13:37:41.371Z,2.97
2023-05-25T13:39:49.248Z,2.50
2023-05-25T13:41:52.151Z,2.20
2023-05-25T13:43:57.800Z,2.87
2023-05-25T13:46:00.812Z,2.40
2023-05-25T13:48:06.570Z,2.70
2023-05-25T13:50:12.489Z,2.53
2023-05-25T13:52:16.287Z,2.80
2023-05-25T13:54:19.984Z,2.70
2023-05-25T13:56:24.434Z,2.40
2023-05-25T13:58:31.488Z,2.50
2023-05-25T14:00:34.947Z,2.80
2023-05-25T14:02:38.106Z,2.77
2023-05-25T14:04:42.481Z,2.70
2023-05-25T14:06:45.428Z,2.60
2023-05-25T14:08:48.388Z,2.37
2023-05-25T14:10:52.032Z,2.23
2023-05-25T14:12:55.370Z,2.60
2023-05-25T14:14:58.369Z,2.40
2023-05-25T14:17:01.625Z,2.45
2023-05-25T14:19:05.570Z,2.40
2023-05-25T14:21:10.837Z,2.20
2023-05-25T14:23:18.629Z,2.42
2023-05-25T14:25:24.281Z,2.70
2023-05-25T14:27:27.256Z,2.90
2023-05-25T14:29:32.173Z,2.50
2023-05-25T14:31:35.123Z,2.60
2023-05-25T14:33:38.509Z,2.40
2023-05-25T14:35:44.128Z,2.60
2023-05-25T14:37:51.250Z,2.60
2023-05-25T14:39:56.839Z,2.50
2023-05-25T14:41:59.835Z,2.50
2023-05-25T14:44:03.941Z,2.70
2023-05-25T14:46:12.922Z,2.35
2023-05-25T14:48:17.937Z,2.70
2023-05-25T14:50:20.960Z,2.60
2023-05-25T14:52:23.881Z,2.60
2023-05-25T14:54:28.206Z,2.40
2023-05-25T14:56:31.268Z,2.30
2023-05-25T14:58:34.901Z,2.50
2023-05-25T15:00:42.224Z,2.40
2023-05-25T15:02:45.176Z,2.47
2023-05-25T15:04:49.014Z,2.83
2023-05-25T15:06:52.037Z,2.50
2023-05-25T15:08:54.964Z,2.70
2023-05-25T15:10:59.226Z,2.53
2023-05-25T15:13:02.168Z,2.70
2023-05-25T15:15:05.646Z,2.93
2023-05-25T15:17:10.913Z,2.80
2023-05-25T15:19:16.028Z,2.50
2023-05-25T15:21:20.550Z,2.90
2023-05-25T15:23:25.340Z,2.83
2023-05-25T15:25:34.959Z,2.90
2023-05-25T15:27:40.417Z,2.70
2023-05-25T15:29:45.813Z,2.60
2023-05-25T15:31:51.887Z,2.50
2023-05-25T15:33:58.760Z,3.27
2023-05-25T15:36:03.752Z,2.60
2023-05-25T15:38:06.693Z,3.03
2023-05-25T15:40:10.982Z,2.87
2023-05-25T15:42:14.004Z,2.47
2023-05-25T15:44:18.293Z,2.53
2023-05-25T15:46:21.481Z,2.77
2023-05-25T15:48:26.203Z,2.70
2023-05-25T15:50:32.478Z,2.53
2023-05-25T15:52:35.426Z,2.90
2023-05-25T15:54:38.623Z,2.93
2023-05-25T15:56:41.718Z,2.60
2023-05-25T15:58:49.233Z,3.08
2023-05-25T16:00:55.670Z,2.87
2023-05-25T16:02:58.663Z,3.05
2023-05-25T16:05:06.016Z,2.93
2023-05-25T16:07:10.942Z,3.00
2023-05-25T16:09:13.926Z,2.90
2023-05-25T16:11:17.191Z,3.40
2023-05-25T16:13:20.126Z,3.40
2023-05-25T16:15:23.631Z,3.10
2023-05-25T16:17:28.385Z,3.37
2023-05-25T16:19:31.409Z,3.37
2023-05-25T16:21:37.909Z,3.03
2023-05-25T16:23:41.204Z,2.80
2023-05-25T16:25:44.307Z,2.80
2023-05-25T16:27:54.334Z,3.10
2023-05-25T16:29:57.302Z,2.67
2023-05-25T16:32:03.438Z,2.80
2023-05-25T16:34:07.983Z,2.77
2023-05-25T16:36:12.754Z,2.43
2023-05-25T16:38:16.133Z,2.50
2023-05-25T16:40:19.036Z,3.27
2023-05-25T16:42:24.970Z,2.93
2023-05-25T16:44:31.028Z,3.13
2023-05-25T16:46:37.082Z,3.10
2023-05-25T16:48:42.508Z,2.90
2023-05-25T16:50:46.829Z,3.13
2023-05-25T16:52:51.143Z,2.90
2023-05-25T16:54:55.211Z,2.90
2023-05-25T16:56:58.135Z,2.77
2023-05-25T16:59:03.169Z,3.40
2023-05-25T17:01:08.096Z,2.93
2023-05-25T17:03:11.465Z,3.53
2023-05-25T17:05:14.485Z,3.53
2023-05-25T17:07:18.945Z,3.30
2023-05-25T17:09:25.623Z,3.30
2023-05-25T17:11:29.324Z,3.40
2023-05-25T17:13:32.240Z,3.20
2023-05-25T17:15:35.232Z,3.10
2023-05-25T17:17:38.188Z,3.17
2023-05-25T17:19:41.238Z,2.93
2023-05-25T17:21:44.151Z,3.10
2023-05-25T17:23:49.104Z,2.80
2023-05-25T17:25:52.055Z,3.00
2023-05-25T17:27:55.078Z,3.20
2023-05-25T17:29:58.036Z,2.87
2023-05-25T17:32:01.326Z,3.00
2023-05-25T17:34:07.396Z,2.70
2023-05-25T17:36:11.703Z,2.80
2023-05-25T17:38:14.696Z,3.10
2023-05-25T17:40:19.025Z,2.97
2023-05-25T17:42:21.966Z,3.10
2023-05-25T17:44:26.016Z,2.60
2023-05-25T17:46:29.519Z,3.30
2023-05-25T17:48:32.666Z,3.30
2023-05-25T17:50:38.237Z,2.90
2023-05-25T17:52:43.952Z,3.20
2023-05-25T17:54:48.818Z,2.93
2023-05-25T17:56:53.970Z,2.77
2023-05-25T17:58:58.984Z,2.70
2023-05-25T18:01:02.237Z,3.27
2023-05-25T18:03:05.760Z,3.77
2023-05-25T18:05:09.581Z,3.73
2023-05-25T18:07:12.542Z,3.93
2023-05-25T18:09:16.883Z,3.63
2023-05-25T18:11:23.250Z,4.40
2023-05-25T18:13:27.605Z,4.27
2023-05-25T18:15:30.794Z,4.27
2023-05-25T18:17:36.267Z,4.70
2023-05-25T18:19:39.245Z,4.50
2023-05-25T18:21:42.899Z,4.07
2023-05-25T18:23:50.455Z,5.10
2023-05-25T18:25:58.178Z,6.40
2023-05-25T18:28:01.322Z,5.07
2023-05-25T18:30:15.396Z,5.63
2023-05-25T18:32:19.542Z,6.23
2023-05-25T18:34:23.697Z,6.17
2023-05-25T18:36:28.606Z,5.77
2023-05-25T18:38:31.875Z,6.20
2023-05-25T18:40:36.792Z,7.30
2023-05-25T18:42:40.176Z,6.57
2023-05-25T18:44:43.271Z,6.40
2023-05-25T18:46:51.591Z,6.70
2023-05-25T18:48:55.668Z,6.40
2023-05-25T18:50:58.696Z,6.57
2023-05-25T18:53:06.208Z,7.13
2023-05-25T18:55:10.160Z,6.27
2023-05-25T18:57:16.195Z,6.67
2023-05-25T18:59:19.964Z,6.30
2023-05-25T19:01:22.996Z,6.60
2023-05-25T19:03:27.557Z,7.00
2023-05-25T19:05:30.627Z,7.60
2023-05-25T19:07:46.944Z,6.70
2023-05-25T19:09:58.237Z,7.00
2023-05-25T19:12:01.319Z,6.60
2023-05-25T19:14:04.422Z,6.63
2023-05-25T19:16:08.543Z,6.83
2023-05-25T19:18:11.645Z,6.37
2023-05-25T19:20:16.181Z,6.30
2023-05-25T19:22:19.260Z,7.00
2023-05-25T19:24:22.191Z,6.70
2023-05-25T19:26:25.657Z,6.33
2023-05-25T19:28:28.603Z,6.30
2023-05-25T19:30:33.345Z,6.27
2023-05-25T19:32:36.561Z,6.07
2023-05-25T19:34:42.776Z,6.37
2023-05-25T19:36:56.350Z,6.03
2023-05-25T19:39:04.851Z,5.67
2023-05-25T19:41:07.789Z,6.30
2023-05-25T19:43:10.851Z,6.47
2023-05-25T19:45:14.208Z,5.60
2023-05-25T19:47:17.137Z,5.70
2023-05-25T19:49:20.041Z,5.80
2023-05-25T19:51:26.517Z,6.30
2023-05-25T19:53:31.399Z,6.10
2023-05-25T19:55:37.681Z,5.53
2023-05-25T19:57:40.600Z,5.90
2023-05-25T19:59:43.509Z,5.70
2023-05-25T20:01:50.656Z,6.13
2023-05-25T20:04:06.034Z,5.60
2023-05-25T20:06:10.665Z,5.30
2023-05-25T20:08:13.598Z,6.13
2023-05-25T20:10:17.948Z,6.20
2023-05-25T20:12:21.793Z,7.23
2023-05-25T20:14:27.382Z,6.77
2023-05-25T20:16:30.933Z,6.43
2023-05-25T20:18:34.329Z,6.10
2023-05-25T20:20:37.655Z,6.37
2023-05-25T20:22:40.968Z,6.17
2023-05-25T20:24:43.929Z,6.40
2023-05-25T20:26:56.233Z,6.20
2023-05-25T20:28:59.317Z,7.47
2023-05-25T20:31:06.392Z,6.90
2023-05-25T20:33:09.349Z,6.90
2023-05-25T20:35:13.545Z,7.77
2023-05-25T20:37:17.064Z,7.00
2023-05-25T20:39:20.619Z,6.97
2023-05-25T20:41:23.634Z,6.67
2023-05-25T20:43:27.901Z,7.17
2023-05-25T20:45:30.982Z,6.30
2023-05-25T20:47:36.759Z,7.37
2023-05-25T20:49:39.738Z,6.77
2023-05-25T20:51:44.426Z,7.03
2023-05-25T20:53:47.389Z,7.10
2023-05-25T20:55:52.443Z,7.60
2023-05-25T20:57:56.544Z,7.10
2023-05-25T21:00:11.466Z,6.70
2023-05-25T21:02:19.243Z,7.40
2023-05-25T21:04:22.192Z,7.27
2023-05-25T21:06:25.085Z,7.50
2023-05-25T21:08:50.368Z,6.77
2023-05-25T21:10:58.360Z,7.00
2023-05-25T21:13:03.773Z,7.13
2023-05-25T21:15:08.942Z,7.03
2023-05-25T21:17:12.062Z,7.53
2023-05-25T21:19:18.693Z,8.10
2023-05-25T21:21:21.646Z,7.70
2023-05-25T21:23:30.530Z,7.07
2023-05-25T21:25:33.648Z,7.93
2023-05-25T21:27:38.619Z,7.63
2023-05-25T21:29:41.575Z,7.90
2023-05-25T21:31:58.794Z,7.83
2023-05-25T21:34:04.157Z,7.83
2023-05-25T21:36:07.901Z,7.60
2023-05-25T21:38:12.689Z,7.80
2023-05-25T21:40:15.737Z,8.37
2023-05-25T21:42:18.718Z,7.10
2023-05-25T21:44:22.994Z,7.80
2023-05-25T21:46:27.627Z,7.33
2023-05-25T21:48:31.995Z,7.93
2023-05-25T21:50:36.999Z,7.73
2023-05-25T21:52:45.115Z,7.30
2023-05-25T21:54:48.087Z,7.90
2023-05-25T21:56:53.561Z,8.23
2023-05-25T21:58:59.958Z,7.50
2023-05-25T22:01:04.846Z,7.47
2023-05-25T22:03:08.133Z,7.73
2023-05-25T22:05:12.747Z,7.37
2023-05-25T22:07:15.729Z,7.60
2023-05-25T22:09:18.666Z,7.20
2023-05-25T22:11:22.172Z,7.53
2023-05-25T22:13:25.347Z,7.53
2023-05-25T22:15:28.292Z,7.87
2023-05-25T22:17:34.368Z,7.90
2023-05-25T22:19:38.817Z,8.07
2023-05-25T22:21:44.543Z,7.23
2023-05-25T22:23:49.830Z,7.53
2023-05-25T22:25:52.993Z,7.37
2023-05-25T22:27:55.955Z,6.87
2023-05-25T22:29:58.938Z,7.10
2023-05-25T22:32:06.696Z,7.63
2023-05-25T22:34:09.832Z,7.23
2023-05-25T22:36:13.058Z,7.00
2023-05-25T22:38:19.377Z,6.70
2023-05-25T22:40:22.381Z,7.00
2023-05-25T22:42:25.439Z,7.17
2023-05-25T22:44:28.775Z,7.17
2023-05-25T22:46:31.872Z,7.10
2023-05-25T22:48:34.764Z,7.13
2023-05-25T22:50:38.057Z,6.97
2023-05-25T22:52:43.039Z,7.03
2023-05-25T22:54:47.461Z,7.17
2023-05-25T22:56:52.294Z,7.10
2023-05-25T22:58:55.303Z,7.30
2023-05-25T23:00:58.462Z,7.00
2023-05-25T23:03:04.081Z,6.57
2023-05-25T23:05:09.151Z,7.23
2023-05-25T23:07:12.274Z,6.80
2023-05-25T23:09:15.235Z,6.47
2023-05-25T23:11:19.521Z,7.20
2023-05-25T23:13:24.050Z,7.03
2023-05-25T23:15:26.952Z,6.90
2023-05-25T23:17:30.350Z,7.23
2023-05-25T23:19:33.256Z,7.00
2023-05-25T23:21:39.881Z,7.87
2023-05-25T23:23:44.736Z,6.90
2023-05-25T23:25:47.832Z,6.73
2023-05-25T23:27:52.109Z,7.10
2023-05-25T23:29:56.791Z,7.10
2023-05-25T23:32:00.000Z,6.67
2023-05-25T23:34:03.063Z,7.47
2023-05-25T23:36:09.395Z,7.33
2023-05-25T23:38:13.066Z,6.80
2023-05-25T23:40:16.225Z,7.00
2023-05-25T23:42:19.141Z,6.90
2023-05-25T23:44:27.089Z,7.07
2023-05-25T23:46:31.581Z,6.50
2023-05-25T23:48:34.778Z,6.47
2023-05-25T23:50:37.687Z,7.10
2023-05-25T23:52:41.281Z,8.07
2023-05-25T23:54:45.654Z,7.60
2023-05-25T23:56:51.595Z,7.33
2023-05-25T23:58:54.644Z,7.00
